sensor_id;sensor_type;location;lat;lon;timestamp;P1;durP1;ratioP1;P2;durP2;ratioP2
9374;SDS011;4727;51.202;6.344;2023-04-29T00:00:50;39.10;;;31.23;;
9374;SDS011;4727;51.202;6.344;2023-04-29T00:03:16;40.23;;;32.93;;
9374;SDS011;4727;51.202;6.344;2023-04-29T00:05:43;42.13;;;31.87;;
9374;SDS011;4727;51.202;6.344;2023-04-29T00:08:10;43.23;;;34.23;;
9374;SDS011;4727;51.202;6.344;2023-04-29T00:10:36;40.97;;;32.73;;
9374;SDS011;4727;51.202;6.344;2023-04-29T00:13:03;43.23;;;32.00;;
9374;SDS011;4727;51.202;6.344;2023-04-29T00:15:29;47.87;;;33.13;;
9374;SDS011;4727;51.202;6.344;2023-04-29T00:17:55;42.90;;;33.07;;
9374;SDS011;4727;51.202;6.344;2023-04-29T00:20:21;44.70;;;31.57;;
9374;SDS011;4727;51.202;6.344;2023-04-29T00:22:47;46.50;;;33.00;;
9374;SDS011;4727;51.202;6.344;2023-04-29T00:25:13;47.23;;;35.03;;
9374;SDS011;4727;51.202;6.344;2023-04-29T00:27:39;53.87;;;36.27;;
9374;SDS011;4727;51.202;6.344;2023-04-29T00:30:06;53.90;;;37.47;;
9374;SDS011;4727;51.202;6.344;2023-04-29T00:32:32;56.90;;;35.97;;
9374;SDS011;4727;51.202;6.344;2023-04-29T00:34:58;59.07;;;37.17;;
9374;SDS011;4727;51.202;6.344;2023-04-29T00:37:24;52.40;;;36.93;;
9374;SDS011;4727;51.202;6.344;2023-04-29T00:39:50;55.43;;;38.30;;
9374;SDS011;4727;51.202;6.344;2023-04-29T00:42:16;62.03;;;39.87;;
9374;SDS011;4727;51.202;6.344;2023-04-29T00:44:43;59.03;;;37.70;;
9374;SDS011;4727;51.202;6.344;2023-04-29T00:47:09;58.07;;;39.57;;
9374;SDS011;4727;51.202;6.344;2023-04-29T00:49:37;60.43;;;40.97;;
9374;SDS011;4727;51.202;6.344;2023-04-29T00:52:03;65.77;;;41.53;;
9374;SDS011;4727;51.202;6.344;2023-04-29T00:54:31;63.33;;;40.53;;
9374;SDS011;4727;51.202;6.344;2023-04-29T00:56:57;63.57;;;40.27;;
9374;SDS011;4727;51.202;6.344;2023-04-29T00:59:25;65.40;;;41.63;;
9374;SDS011;4727;51.202;6.344;2023-04-29T01:01:56;69.50;;;42.30;;
9374;SDS011;4727;51.202;6.344;2023-04-29T01:04:23;70.67;;;44.13;;
9374;SDS011;4727;51.202;6.344;2023-04-29T01:12:30;69.67;;;44.87;;
9374;SDS011;4727;51.202;6.344;2023-04-29T01:15:03;86.93;;;49.73;;
9374;SDS011;4727;51.202;6.344;2023-04-29T01:17:43;76.43;;;46.83;;
9374;SDS011;4727;51.202;6.344;2023-04-29T01:20:14;85.97;;;49.27;;
9374;SDS011;4727;51.202;6.344;2023-04-29T01:22:41;84.10;;;48.27;;
9374;SDS011;4727;51.202;6.344;2023-04-29T01:25:07;84.67;;;49.97;;
9374;SDS011;4727;51.202;6.344;2023-04-29T01:30:21;84.30;;;50.13;;
9374;SDS011;4727;51.202;6.344;2023-04-29T01:32:52;83.83;;;49.33;;
9374;SDS011;4727;51.202;6.344;2023-04-29T01:37:56;73.97;;;47.20;;
9374;SDS011;4727;51.202;6.344;2023-04-29T01:40:25;75.00;;;45.97;;
9374;SDS011;4727;51.202;6.344;2023-04-29T01:43:00;76.33;;;46.57;;
9374;SDS011;4727;51.202;6.344;2023-04-29T01:45:28;81.23;;;47.53;;
9374;SDS011;4727;51.202;6.344;2023-04-29T01:47:56;81.97;;;48.70;;
9374;SDS011;4727;51.202;6.344;2023-04-29T01:50:23;91.40;;;48.03;;
9374;SDS011;4727;51.202;6.344;2023-04-29T01:52:49;94.30;;;50.47;;
9374;SDS011;4727;51.202;6.344;2023-04-29T01:55:15;92.80;;;49.13;;
9374;SDS011;4727;51.202;6.344;2023-04-29T01:57:41;88.33;;;46.00;;
9374;SDS011;4727;51.202;6.344;2023-04-29T02:00:08;93.03;;;47.67;;
9374;SDS011;4727;51.202;6.344;2023-04-29T02:02:35;90.70;;;47.57;;
9374;SDS011;4727;51.202;6.344;2023-04-29T02:05:01;94.17;;;46.33;;
9374;SDS011;4727;51.202;6.344;2023-04-29T02:07:27;95.00;;;46.40;;
9374;SDS011;4727;51.202;6.344;2023-04-29T02:09:53;96.47;;;47.80;;
9374;SDS011;4727;51.202;6.344;2023-04-29T02:12:19;97.37;;;46.73;;
9374;SDS011;4727;51.202;6.344;2023-04-29T02:14:45;90.17;;;43.87;;
9374;SDS011;4727;51.202;6.344;2023-04-29T02:17:12;87.60;;;45.07;;
9374;SDS011;4727;51.202;6.344;2023-04-29T02:19:38;88.87;;;44.27;;
9374;SDS011;4727;51.202;6.344;2023-04-29T02:22:04;78.47;;;42.03;;
9374;SDS011;4727;51.202;6.344;2023-04-29T02:24:30;85.27;;;42.33;;
9374;SDS011;4727;51.202;6.344;2023-04-29T02:26:56;84.60;;;42.23;;
9374;SDS011;4727;51.202;6.344;2023-04-29T02:29:23;83.10;;;42.10;;
9374;SDS011;4727;51.202;6.344;2023-04-29T02:31:50;79.97;;;40.90;;
9374;SDS011;4727;51.202;6.344;2023-04-29T02:34:16;83.40;;;41.00;;
9374;SDS011;4727;51.202;6.344;2023-04-29T02:36:42;72.80;;;39.40;;
9374;SDS011;4727;51.202;6.344;2023-04-29T02:39:08;73.23;;;37.27;;
9374;SDS011;4727;51.202;6.344;2023-04-29T02:41:33;64.03;;;37.17;;
9374;SDS011;4727;51.202;6.344;2023-04-29T02:43:59;63.13;;;35.70;;
9374;SDS011;4727;51.202;6.344;2023-04-29T02:46:25;53.80;;;34.60;;
9374;SDS011;4727;51.202;6.344;2023-04-29T02:48:51;51.77;;;34.40;;
9374;SDS011;4727;51.202;6.344;2023-04-29T02:51:17;54.30;;;32.47;;
9374;SDS011;4727;51.202;6.344;2023-04-29T02:53:43;48.23;;;30.67;;
9374;SDS011;4727;51.202;6.344;2023-04-29T02:56:09;49.57;;;30.73;;
9374;SDS011;4727;51.202;6.344;2023-04-29T02:58:35;43.30;;;29.20;;
9374;SDS011;4727;51.202;6.344;2023-04-29T03:01:01;45.70;;;30.90;;
9374;SDS011;4727;51.202;6.344;2023-04-29T03:03:28;47.63;;;30.90;;
9374;SDS011;4727;51.202;6.344;2023-04-29T03:05:55;58.20;;;35.47;;
9374;SDS011;4727;51.202;6.344;2023-04-29T03:08:21;51.83;;;33.73;;
9374;SDS011;4727;51.202;6.344;2023-04-29T03:10:47;57.70;;;34.43;;
9374;SDS011;4727;51.202;6.344;2023-04-29T03:13:12;55.67;;;34.77;;
9374;SDS011;4727;51.202;6.344;2023-04-29T03:15:38;55.50;;;33.27;;
9374;SDS011;4727;51.202;6.344;2023-04-29T03:18:04;60.40;;;34.43;;
9374;SDS011;4727;51.202;6.344;2023-04-29T03:20:31;59.27;;;35.50;;
9374;SDS011;4727;51.202;6.344;2023-04-29T03:22:56;54.73;;;34.27;;
9374;SDS011;4727;51.202;6.344;2023-04-29T03:25:23;60.73;;;34.47;;
9374;SDS011;4727;51.202;6.344;2023-04-29T03:27:49;60.10;;;35.33;;
9374;SDS011;4727;51.202;6.344;2023-04-29T03:30:15;58.00;;;35.07;;
9374;SDS011;4727;51.202;6.344;2023-04-29T03:32:41;65.23;;;36.80;;
9374;SDS011;4727;51.202;6.344;2023-04-29T03:35:07;53.33;;;33.30;;
9374;SDS011;4727;51.202;6.344;2023-04-29T03:37:33;61.10;;;35.43;;
9374;SDS011;4727;51.202;6.344;2023-04-29T03:39:59;65.70;;;36.03;;
9374;SDS011;4727;51.202;6.344;2023-04-29T03:42:25;64.80;;;36.70;;
9374;SDS011;4727;51.202;6.344;2023-04-29T03:44:51;62.53;;;37.10;;
9374;SDS011;4727;51.202;6.344;2023-04-29T03:47:17;68.13;;;37.10;;
9374;SDS011;4727;51.202;6.344;2023-04-29T03:49:43;64.23;;;36.37;;
9374;SDS011;4727;51.202;6.344;2023-04-29T03:52:09;65.47;;;35.20;;
9374;SDS011;4727;51.202;6.344;2023-04-29T03:54:36;68.40;;;36.70;;
9374;SDS011;4727;51.202;6.344;2023-04-29T03:57:02;67.50;;;35.77;;
9374;SDS011;4727;51.202;6.344;2023-04-29T03:59:28;66.33;;;36.37;;
9374;SDS011;4727;51.202;6.344;2023-04-29T04:01:54;61.90;;;35.17;;
9374;SDS011;4727;51.202;6.344;2023-04-29T04:04:20;62.53;;;35.53;;
9374;SDS011;4727;51.202;6.344;2023-04-29T04:06:46;65.40;;;36.13;;
9374;SDS011;4727;51.202;6.344;2023-04-29T04:09:16;61.83;;;34.07;;
9374;SDS011;4727;51.202;6.344;2023-04-29T04:11:42;62.73;;;34.40;;
9374;SDS011;4727;51.202;6.344;2023-04-29T04:14:08;55.53;;;32.33;;
9374;SDS011;4727;51.202;6.344;2023-04-29T04:16:34;64.77;;;34.00;;
9374;SDS011;4727;51.202;6.344;2023-04-29T04:19:00;59.10;;;34.57;;
9374;SDS011;4727;51.202;6.344;2023-04-29T04:21:27;64.30;;;35.23;;
9374;SDS011;4727;51.202;6.344;2023-04-29T04:23:54;70.57;;;36.23;;
9374;SDS011;4727;51.202;6.344;2023-04-29T04:26:20;71.57;;;35.70;;
9374;SDS011;4727;51.202;6.344;2023-04-29T04:28:47;52.00;;;31.03;;
9374;SDS011;4727;51.202;6.344;2023-04-29T04:31:12;63.50;;;34.70;;
9374;SDS011;4727;51.202;6.344;2023-04-29T04:33:41;57.57;;;32.37;;
9374;SDS011;4727;51.202;6.344;2023-04-29T04:36:07;52.17;;;29.87;;
9374;SDS011;4727;51.202;6.344;2023-04-29T04:38:33;53.67;;;29.73;;
9374;SDS011;4727;51.202;6.344;2023-04-29T04:40:59;50.20;;;31.43;;
9374;SDS011;4727;51.202;6.344;2023-04-29T04:43:25;51.07;;;30.87;;
9374;SDS011;4727;51.202;6.344;2023-04-29T04:45:51;49.40;;;29.93;;
9374;SDS011;4727;51.202;6.344;2023-04-29T04:48:17;53.77;;;31.23;;
9374;SDS011;4727;51.202;6.344;2023-04-29T04:50:43;54.33;;;31.03;;
9374;SDS011;4727;51.202;6.344;2023-04-29T04:53:09;48.47;;;31.37;;
9374;SDS011;4727;51.202;6.344;2023-04-29T04:55:35;47.87;;;29.93;;
9374;SDS011;4727;51.202;6.344;2023-04-29T04:58:01;46.70;;;28.33;;
9374;SDS011;4727;51.202;6.344;2023-04-29T05:00:27;48.07;;;29.23;;
9374;SDS011;4727;51.202;6.344;2023-04-29T05:02:52;50.57;;;28.67;;
9374;SDS011;4727;51.202;6.344;2023-04-29T05:05:18;49.30;;;30.03;;
9374;SDS011;4727;51.202;6.344;2023-04-29T05:07:44;52.43;;;30.17;;
9374;SDS011;4727;51.202;6.344;2023-04-29T05:10:10;54.00;;;31.10;;
9374;SDS011;4727;51.202;6.344;2023-04-29T05:12:36;50.37;;;30.07;;
9374;SDS011;4727;51.202;6.344;2023-04-29T05:15:02;48.93;;;29.53;;
9374;SDS011;4727;51.202;6.344;2023-04-29T05:17:28;47.80;;;30.70;;
9374;SDS011;4727;51.202;6.344;2023-04-29T05:19:54;51.53;;;31.13;;
9374;SDS011;4727;51.202;6.344;2023-04-29T05:22:20;49.07;;;30.40;;
9374;SDS011;4727;51.202;6.344;2023-04-29T05:24:46;53.97;;;30.90;;
9374;SDS011;4727;51.202;6.344;2023-04-29T05:27:16;51.73;;;30.67;;
9374;SDS011;4727;51.202;6.344;2023-04-29T05:29:42;50.50;;;30.33;;
9374;SDS011;4727;51.202;6.344;2023-04-29T05:32:08;51.30;;;31.73;;
9374;SDS011;4727;51.202;6.344;2023-04-29T05:34:34;48.00;;;28.70;;
9374;SDS011;4727;51.202;6.344;2023-04-29T05:37:00;48.53;;;28.27;;
9374;SDS011;4727;51.202;6.344;2023-04-29T05:39:26;45.13;;;28.40;;
9374;SDS011;4727;51.202;6.344;2023-04-29T05:41:52;45.30;;;26.87;;
9374;SDS011;4727;51.202;6.344;2023-04-29T05:44:18;42.43;;;26.43;;
9374;SDS011;4727;51.202;6.344;2023-04-29T05:46:43;41.87;;;26.80;;
9374;SDS011;4727;51.202;6.344;2023-04-29T05:49:10;41.47;;;26.43;;
9374;SDS011;4727;51.202;6.344;2023-04-29T05:51:35;37.27;;;25.20;;
9374;SDS011;4727;51.202;6.344;2023-04-29T05:54:01;38.87;;;24.20;;
9374;SDS011;4727;51.202;6.344;2023-04-29T05:56:27;35.57;;;23.97;;
9374;SDS011;4727;51.202;6.344;2023-04-29T05:58:53;40.00;;;25.00;;
9374;SDS011;4727;51.202;6.344;2023-04-29T06:01:18;37.47;;;25.20;;
9374;SDS011;4727;51.202;6.344;2023-04-29T06:03:44;35.97;;;23.70;;
9374;SDS011;4727;51.202;6.344;2023-04-29T06:06:10;38.60;;;24.90;;
9374;SDS011;4727;51.202;6.344;2023-04-29T06:08:36;39.03;;;24.60;;
9374;SDS011;4727;51.202;6.344;2023-04-29T06:11:02;35.23;;;24.60;;
9374;SDS011;4727;51.202;6.344;2023-04-29T06:13:29;34.73;;;23.47;;
9374;SDS011;4727;51.202;6.344;2023-04-29T06:15:55;38.03;;;24.93;;
9374;SDS011;4727;51.202;6.344;2023-04-29T06:18:21;38.23;;;24.33;;
9374;SDS011;4727;51.202;6.344;2023-04-29T06:20:47;37.60;;;23.43;;
9374;SDS011;4727;51.202;6.344;2023-04-29T06:23:13;34.23;;;23.03;;
9374;SDS011;4727;51.202;6.344;2023-04-29T06:25:38;33.63;;;23.87;;
9374;SDS011;4727;51.202;6.344;2023-04-29T06:28:04;34.43;;;23.33;;
9374;SDS011;4727;51.202;6.344;2023-04-29T06:30:32;32.93;;;22.80;;
9374;SDS011;4727;51.202;6.344;2023-04-29T06:32:57;31.53;;;21.60;;
9374;SDS011;4727;51.202;6.344;2023-04-29T06:35:23;32.47;;;22.53;;
9374;SDS011;4727;51.202;6.344;2023-04-29T06:37:49;34.03;;;21.67;;
9374;SDS011;4727;51.202;6.344;2023-04-29T06:40:16;33.57;;;22.90;;
9374;SDS011;4727;51.202;6.344;2023-04-29T06:42:42;31.50;;;21.80;;
9374;SDS011;4727;51.202;6.344;2023-04-29T06:45:08;32.63;;;22.00;;
9374;SDS011;4727;51.202;6.344;2023-04-29T06:47:34;32.17;;;22.30;;
9374;SDS011;4727;51.202;6.344;2023-04-29T06:50:00;32.23;;;21.93;;
9374;SDS011;4727;51.202;6.344;2023-04-29T06:52:26;30.77;;;22.33;;
9374;SDS011;4727;51.202;6.344;2023-04-29T06:54:52;30.40;;;20.73;;
9374;SDS011;4727;51.202;6.344;2023-04-29T06:57:17;28.03;;;20.57;;
9374;SDS011;4727;51.202;6.344;2023-04-29T06:59:44;25.30;;;20.10;;
9374;SDS011;4727;51.202;6.344;2023-04-29T07:02:10;26.77;;;19.60;;
9374;SDS011;4727;51.202;6.344;2023-04-29T07:04:36;26.13;;;20.27;;
9374;SDS011;4727;51.202;6.344;2023-04-29T07:07:02;30.70;;;21.20;;
9374;SDS011;4727;51.202;6.344;2023-04-29T07:09:28;28.07;;;19.97;;
9374;SDS011;4727;51.202;6.344;2023-04-29T07:11:54;27.33;;;19.60;;
9374;SDS011;4727;51.202;6.344;2023-04-29T07:14:19;29.27;;;19.93;;
9374;SDS011;4727;51.202;6.344;2023-04-29T07:16:46;28.60;;;19.83;;
9374;SDS011;4727;51.202;6.344;2023-04-29T07:19:12;25.10;;;19.87;;
9374;SDS011;4727;51.202;6.344;2023-04-29T07:21:38;24.03;;;19.17;;
9374;SDS011;4727;51.202;6.344;2023-04-29T07:24:04;27.00;;;20.13;;
9374;SDS011;4727;51.202;6.344;2023-04-29T07:26:30;29.77;;;21.10;;
9374;SDS011;4727;51.202;6.344;2023-04-29T07:28:56;29.63;;;20.97;;
9374;SDS011;4727;51.202;6.344;2023-04-29T07:31:22;28.20;;;20.73;;
9374;SDS011;4727;51.202;6.344;2023-04-29T07:33:48;32.17;;;22.50;;
9374;SDS011;4727;51.202;6.344;2023-04-29T07:36:14;30.17;;;21.83;;
9374;SDS011;4727;51.202;6.344;2023-04-29T07:38:40;30.93;;;20.43;;
9374;SDS011;4727;51.202;6.344;2023-04-29T07:41:05;30.30;;;22.40;;
9374;SDS011;4727;51.202;6.344;2023-04-29T07:43:31;28.40;;;21.70;;
9374;SDS011;4727;51.202;6.344;2023-04-29T07:45:57;30.50;;;20.23;;
9374;SDS011;4727;51.202;6.344;2023-04-29T07:48:22;29.97;;;21.47;;
9374;SDS011;4727;51.202;6.344;2023-04-29T07:50:48;30.20;;;22.57;;
9374;SDS011;4727;51.202;6.344;2023-04-29T07:53:15;32.73;;;22.67;;
9374;SDS011;4727;51.202;6.344;2023-04-29T07:55:42;32.93;;;23.27;;
9374;SDS011;4727;51.202;6.344;2023-04-29T07:58:08;34.03;;;23.23;;
9374;SDS011;4727;51.202;6.344;2023-04-29T08:00:34;28.80;;;22.53;;
9374;SDS011;4727;51.202;6.344;2023-04-29T08:03:00;29.87;;;22.90;;
9374;SDS011;4727;51.202;6.344;2023-04-29T08:05:26;30.03;;;22.80;;
9374;SDS011;4727;51.202;6.344;2023-04-29T08:07:51;32.60;;;23.80;;
9374;SDS011;4727;51.202;6.344;2023-04-29T08:10:17;28.17;;;21.53;;
9374;SDS011;4727;51.202;6.344;2023-04-29T08:12:47;28.27;;;21.53;;
9374;SDS011;4727;51.202;6.344;2023-04-29T08:15:13;24.90;;;20.87;;
9374;SDS011;4727;51.202;6.344;2023-04-29T08:17:38;26.60;;;19.83;;
9374;SDS011;4727;51.202;6.344;2023-04-29T08:20:04;27.80;;;21.87;;
9374;SDS011;4727;51.202;6.344;2023-04-29T08:22:32;27.60;;;21.43;;
9374;SDS011;4727;51.202;6.344;2023-04-29T08:24:58;26.37;;;20.80;;
9374;SDS011;4727;51.202;6.344;2023-04-29T08:27:23;22.33;;;19.93;;
9374;SDS011;4727;51.202;6.344;2023-04-29T08:29:49;26.23;;;20.47;;
9374;SDS011;4727;51.202;6.344;2023-04-29T08:32:15;22.50;;;19.63;;
9374;SDS011;4727;51.202;6.344;2023-04-29T08:34:41;20.37;;;18.17;;
9374;SDS011;4727;51.202;6.344;2023-04-29T08:37:08;22.73;;;18.00;;
9374;SDS011;4727;51.202;6.344;2023-04-29T08:39:34;21.10;;;18.53;;
9374;SDS011;4727;51.202;6.344;2023-04-29T08:42:06;23.87;;;20.27;;
9374;SDS011;4727;51.202;6.344;2023-04-29T08:44:33;23.93;;;18.87;;
9374;SDS011;4727;51.202;6.344;2023-04-29T08:46:59;24.03;;;19.33;;
9374;SDS011;4727;51.202;6.344;2023-04-29T08:49:27;22.77;;;18.80;;
9374;SDS011;4727;51.202;6.344;2023-04-29T08:51:53;22.40;;;17.87;;
9374;SDS011;4727;51.202;6.344;2023-04-29T08:54:19;18.93;;;15.60;;
9374;SDS011;4727;51.202;6.344;2023-04-29T08:56:47;20.37;;;16.37;;
9374;SDS011;4727;51.202;6.344;2023-04-29T08:59:16;19.13;;;16.53;;
9374;SDS011;4727;51.202;6.344;2023-04-29T09:01:42;18.97;;;16.87;;
9374;SDS011;4727;51.202;6.344;2023-04-29T09:04:14;20.60;;;16.63;;
9374;SDS011;4727;51.202;6.344;2023-04-29T09:07:03;19.07;;;15.93;;
9374;SDS011;4727;51.202;6.344;2023-04-29T09:09:30;18.00;;;15.63;;
9374;SDS011;4727;51.202;6.344;2023-04-29T09:11:57;18.90;;;16.83;;
9374;SDS011;4727;51.202;6.344;2023-04-29T09:14:23;19.17;;;15.93;;
9374;SDS011;4727;51.202;6.344;2023-04-29T09:16:49;21.40;;;17.37;;
9374;SDS011;4727;51.202;6.344;2023-04-29T09:19:32;23.37;;;18.47;;
9374;SDS011;4727;51.202;6.344;2023-04-29T09:22:00;18.97;;;15.40;;
9374;SDS011;4727;51.202;6.344;2023-04-29T09:24:27;20.83;;;16.87;;
9374;SDS011;4727;51.202;6.344;2023-04-29T09:26:54;21.60;;;17.20;;
9374;SDS011;4727;51.202;6.344;2023-04-29T09:29:20;25.27;;;18.80;;
9374;SDS011;4727;51.202;6.344;2023-04-29T09:31:46;24.43;;;19.17;;
9374;SDS011;4727;51.202;6.344;2023-04-29T09:34:12;22.93;;;19.30;;
9374;SDS011;4727;51.202;6.344;2023-04-29T09:36:48;20.00;;;16.30;;
9374;SDS011;4727;51.202;6.344;2023-04-29T09:39:18;25.17;;;18.90;;
9374;SDS011;4727;51.202;6.344;2023-04-29T09:44:19;28.60;;;21.13;;
9374;SDS011;4727;51.202;6.344;2023-04-29T09:46:58;23.60;;;19.23;;
9374;SDS011;4727;51.202;6.344;2023-04-29T09:49:36;27.33;;;20.70;;
9374;SDS011;4727;51.202;6.344;2023-04-29T09:52:08;26.33;;;21.23;;
9374;SDS011;4727;51.202;6.344;2023-04-29T09:54:38;27.30;;;22.13;;
9374;SDS011;4727;51.202;6.344;2023-04-29T09:57:06;27.83;;;22.37;;
9374;SDS011;4727;51.202;6.344;2023-04-29T09:59:33;28.87;;;21.47;;
9374;SDS011;4727;51.202;6.344;2023-04-29T10:02:00;30.83;;;22.27;;
9374;SDS011;4727;51.202;6.344;2023-04-29T10:04:31;27.80;;;21.13;;
9374;SDS011;4727;51.202;6.344;2023-04-29T10:06:59;30.53;;;23.13;;
9374;SDS011;4727;51.202;6.344;2023-04-29T10:09:26;31.23;;;22.37;;
9374;SDS011;4727;51.202;6.344;2023-04-29T10:11:52;27.87;;;22.20;;
9374;SDS011;4727;51.202;6.344;2023-04-29T10:14:19;28.17;;;21.70;;
9374;SDS011;4727;51.202;6.344;2023-04-29T10:17:06;25.57;;;21.23;;
9374;SDS011;4727;51.202;6.344;2023-04-29T10:19:38;28.70;;;21.97;;
9374;SDS011;4727;51.202;6.344;2023-04-29T10:22:18;29.27;;;21.63;;
9374;SDS011;4727;51.202;6.344;2023-04-29T10:24:51;26.20;;;21.27;;
9374;SDS011;4727;51.202;6.344;2023-04-29T10:27:19;30.93;;;21.57;;
9374;SDS011;4727;51.202;6.344;2023-04-29T10:29:45;25.63;;;21.97;;
9374;SDS011;4727;51.202;6.344;2023-04-29T10:32:13;25.07;;;21.77;;
9374;SDS011;4727;51.202;6.344;2023-04-29T10:34:39;29.43;;;23.27;;
9374;SDS011;4727;51.202;6.344;2023-04-29T10:37:09;26.20;;;21.23;;
9374;SDS011;4727;51.202;6.344;2023-04-29T10:39:41;28.97;;;21.30;;
9374;SDS011;4727;51.202;6.344;2023-04-29T10:42:26;28.63;;;20.03;;
9374;SDS011;4727;51.202;6.344;2023-04-29T10:45:17;30.83;;;21.80;;
9374;SDS011;4727;51.202;6.344;2023-04-29T10:53:11;27.90;;;21.30;;
9374;SDS011;4727;51.202;6.344;2023-04-29T10:55:38;26.03;;;21.33;;
9374;SDS011;4727;51.202;6.344;2023-04-29T10:58:04;25.67;;;19.93;;
9374;SDS011;4727;51.202;6.344;2023-04-29T11:00:34;25.93;;;20.60;;
9374;SDS011;4727;51.202;6.344;2023-04-29T11:03:04;27.60;;;21.13;;
9374;SDS011;4727;51.202;6.344;2023-04-29T11:08:12;25.77;;;20.23;;
9374;SDS011;4727;51.202;6.344;2023-04-29T11:10:40;24.47;;;20.53;;
9374;SDS011;4727;51.202;6.344;2023-04-29T11:13:23;29.77;;;21.33;;
9374;SDS011;4727;51.202;6.344;2023-04-29T11:15:50;26.17;;;20.37;;
9374;SDS011;4727;51.202;6.344;2023-04-29T11:18:29;23.77;;;20.83;;
9374;SDS011;4727;51.202;6.344;2023-04-29T11:23:30;28.63;;;20.77;;
9374;SDS011;4727;51.202;6.344;2023-04-29T11:26:02;25.33;;;20.40;;
9374;SDS011;4727;51.202;6.344;2023-04-29T11:28:31;25.93;;;20.87;;
9374;SDS011;4727;51.202;6.344;2023-04-29T11:30:57;24.13;;;20.30;;
9374;SDS011;4727;51.202;6.344;2023-04-29T11:33:24;24.47;;;20.03;;
9374;SDS011;4727;51.202;6.344;2023-04-29T11:35:51;22.93;;;19.83;;
9374;SDS011;4727;51.202;6.344;2023-04-29T11:38:27;23.23;;;19.97;;
9374;SDS011;4727;51.202;6.344;2023-04-29T11:40:54;22.43;;;20.03;;
9374;SDS011;4727;51.202;6.344;2023-04-29T11:43:21;23.20;;;18.77;;
9374;SDS011;4727;51.202;6.344;2023-04-29T11:45:47;22.77;;;19.73;;
9374;SDS011;4727;51.202;6.344;2023-04-29T11:48:23;22.00;;;19.13;;
9374;SDS011;4727;51.202;6.344;2023-04-29T11:50:52;23.70;;;19.93;;
9374;SDS011;4727;51.202;6.344;2023-04-29T11:53:21;24.93;;;20.87;;
9374;SDS011;4727;51.202;6.344;2023-04-29T11:55:49;21.53;;;19.33;;
9374;SDS011;4727;51.202;6.344;2023-04-29T11:58:19;21.47;;;19.23;;
9374;SDS011;4727;51.202;6.344;2023-04-29T12:00:46;21.90;;;19.60;;
9374;SDS011;4727;51.202;6.344;2023-04-29T12:03:15;22.70;;;20.13;;
9374;SDS011;4727;51.202;6.344;2023-04-29T12:05:54;22.07;;;19.70;;
9374;SDS011;4727;51.202;6.344;2023-04-29T12:08:21;22.27;;;19.00;;
9374;SDS011;4727;51.202;6.344;2023-04-29T12:10:51;22.00;;;18.87;;
9374;SDS011;4727;51.202;6.344;2023-04-29T12:13:18;21.00;;;18.83;;
9374;SDS011;4727;51.202;6.344;2023-04-29T12:15:45;20.53;;;18.27;;
9374;SDS011;4727;51.202;6.344;2023-04-29T12:18:12;21.50;;;18.73;;
9374;SDS011;4727;51.202;6.344;2023-04-29T12:20:38;21.50;;;18.10;;
9374;SDS011;4727;51.202;6.344;2023-04-29T12:23:14;21.83;;;19.47;;
9374;SDS011;4727;51.202;6.344;2023-04-29T12:25:46;22.60;;;17.43;;
9374;SDS011;4727;51.202;6.344;2023-04-29T12:28:23;19.23;;;17.37;;
9374;SDS011;4727;51.202;6.344;2023-04-29T12:30:49;18.50;;;16.60;;
9374;SDS011;4727;51.202;6.344;2023-04-29T12:33:19;19.80;;;17.80;;
9374;SDS011;4727;51.202;6.344;2023-04-29T12:35:47;21.03;;;17.27;;
9374;SDS011;4727;51.202;6.344;2023-04-29T12:38:21;20.57;;;18.33;;
9374;SDS011;4727;51.202;6.344;2023-04-29T12:40:54;20.20;;;16.87;;
9374;SDS011;4727;51.202;6.344;2023-04-29T12:43:29;17.87;;;16.17;;
9374;SDS011;4727;51.202;6.344;2023-04-29T12:46:04;20.27;;;16.80;;
9374;SDS011;4727;51.202;6.344;2023-04-29T12:48:32;19.70;;;17.50;;
9374;SDS011;4727;51.202;6.344;2023-04-29T12:50:59;18.87;;;16.83;;
9374;SDS011;4727;51.202;6.344;2023-04-29T12:53:28;17.40;;;15.60;;
9374;SDS011;4727;51.202;6.344;2023-04-29T12:55:54;18.10;;;16.30;;
9374;SDS011;4727;51.202;6.344;2023-04-29T12:58:20;17.77;;;16.10;;
9374;SDS011;4727;51.202;6.344;2023-04-29T13:00:46;15.07;;;13.60;;
9374;SDS011;4727;51.202;6.344;2023-04-29T13:03:12;15.40;;;13.80;;
9374;SDS011;4727;51.202;6.344;2023-04-29T13:05:38;16.23;;;14.63;;
9374;SDS011;4727;51.202;6.344;2023-04-29T13:08:05;16.43;;;14.93;;
9374;SDS011;4727;51.202;6.344;2023-04-29T13:10:31;18.53;;;15.40;;
9374;SDS011;4727;51.202;6.344;2023-04-29T13:12:57;16.17;;;14.60;;
9374;SDS011;4727;51.202;6.344;2023-04-29T13:15:23;16.43;;;14.33;;
9374;SDS011;4727;51.202;6.344;2023-04-29T13:17:49;16.37;;;14.70;;
9374;SDS011;4727;51.202;6.344;2023-04-29T13:20:15;16.40;;;14.80;;
9374;SDS011;4727;51.202;6.344;2023-04-29T13:22:41;15.30;;;13.80;;
9374;SDS011;4727;51.202;6.344;2023-04-29T13:25:08;13.43;;;12.23;;
9374;SDS011;4727;51.202;6.344;2023-04-29T13:27:35;12.57;;;11.37;;
9374;SDS011;4727;51.202;6.344;2023-04-29T13:30:01;11.80;;;10.70;;
9374;SDS011;4727;51.202;6.344;2023-04-29T13:32:27;13.10;;;11.37;;
9374;SDS011;4727;51.202;6.344;2023-04-29T13:34:53;12.97;;;11.77;;
9374;SDS011;4727;51.202;6.344;2023-04-29T13:37:19;13.03;;;11.83;;
9374;SDS011;4727;51.202;6.344;2023-04-29T13:39:44;14.13;;;12.80;;
9374;SDS011;4727;51.202;6.344;2023-04-29T13:42:10;14.10;;;12.70;;
9374;SDS011;4727;51.202;6.344;2023-04-29T13:44:36;13.70;;;12.40;;
9374;SDS011;4727;51.202;6.344;2023-04-29T13:47:02;14.40;;;13.00;;
9374;SDS011;4727;51.202;6.344;2023-04-29T13:49:30;14.87;;;13.47;;
9374;SDS011;4727;51.202;6.344;2023-04-29T13:51:56;14.03;;;12.67;;
9374;SDS011;4727;51.202;6.344;2023-04-29T13:54:21;14.60;;;13.13;;
9374;SDS011;4727;51.202;6.344;2023-04-29T13:56:47;13.10;;;11.87;;
9374;SDS011;4727;51.202;6.344;2023-04-29T13:59:13;13.30;;;11.90;;
9374;SDS011;4727;51.202;6.344;2023-04-29T14:01:39;12.67;;;11.33;;
9374;SDS011;4727;51.202;6.344;2023-04-29T14:04:04;12.27;;;10.87;;
9374;SDS011;4727;51.202;6.344;2023-04-29T14:06:30;11.00;;;9.90;;
9374;SDS011;4727;51.202;6.344;2023-04-29T14:08:56;10.03;;;9.13;;
9374;SDS011;4727;51.202;6.344;2023-04-29T14:11:22;11.60;;;10.40;;
9374;SDS011;4727;51.202;6.344;2023-04-29T14:13:48;12.30;;;11.10;;
9374;SDS011;4727;51.202;6.344;2023-04-29T14:16:14;13.00;;;11.70;;
9374;SDS011;4727;51.202;6.344;2023-04-29T14:18:40;12.93;;;11.63;;
9374;SDS011;4727;51.202;6.344;2023-04-29T14:21:06;13.17;;;11.90;;
9374;SDS011;4727;51.202;6.344;2023-04-29T14:23:32;13.07;;;11.70;;
9374;SDS011;4727;51.202;6.344;2023-04-29T14:25:58;12.83;;;11.53;;
9374;SDS011;4727;51.202;6.344;2023-04-29T14:28:23;12.53;;;11.17;;
9374;SDS011;4727;51.202;6.344;2023-04-29T14:30:49;12.33;;;11.10;;
9374;SDS011;4727;51.202;6.344;2023-04-29T14:33:14;12.60;;;11.30;;
9374;SDS011;4727;51.202;6.344;2023-04-29T14:35:40;13.40;;;12.00;;
9374;SDS011;4727;51.202;6.344;2023-04-29T14:38:06;13.03;;;11.80;;
9374;SDS011;4727;51.202;6.344;2023-04-29T14:40:31;13.37;;;12.13;;
9374;SDS011;4727;51.202;6.344;2023-04-29T14:42:57;12.47;;;11.17;;
9374;SDS011;4727;51.202;6.344;2023-04-29T14:45:23;11.77;;;10.57;;
9374;SDS011;4727;51.202;6.344;2023-04-29T14:47:48;12.20;;;10.90;;
9374;SDS011;4727;51.202;6.344;2023-04-29T14:50:14;13.53;;;10.47;;
9374;SDS011;4727;51.202;6.344;2023-04-29T14:52:40;12.23;;;11.00;;
9374;SDS011;4727;51.202;6.344;2023-04-29T14:55:06;12.27;;;11.00;;
9374;SDS011;4727;51.202;6.344;2023-04-29T14:57:32;12.67;;;11.47;;
9374;SDS011;4727;51.202;6.344;2023-04-29T14:59:58;13.67;;;12.10;;
9374;SDS011;4727;51.202;6.344;2023-04-29T15:02:24;12.63;;;11.43;;
9374;SDS011;4727;51.202;6.344;2023-04-29T15:04:49;12.87;;;11.33;;
9374;SDS011;4727;51.202;6.344;2023-04-29T15:07:15;12.90;;;11.57;;
9374;SDS011;4727;51.202;6.344;2023-04-29T15:09:41;12.30;;;11.00;;
9374;SDS011;4727;51.202;6.344;2023-04-29T15:12:07;11.33;;;10.23;;